sensor_id;sensor_type;location;lat;lon;timestamp;P1;durP1;ratioP1;P2;durP2;ratioP2
62056;SDS011;48016;50.284;18.860;2023-07-30T00:01:44;2.80;;;1.30;;
62056;SDS011;48016;50.284;18.860;2023-07-30T00:04:10;3.60;;;1.60;;
62056;SDS011;48016;50.284;18.860;2023-07-30T00:06:37;2.20;;;1.30;;
62056;SDS011;48016;50.284;18.860;2023-07-30T00:09:03;3.00;;;1.50;;
62056;SDS011;48016;50.284;18.860;2023-07-30T00:11:30;2.80;;;1.30;;
62056;SDS011;48016;50.284;18.860;2023-07-30T00:13:56;3.10;;;1.30;;
62056;SDS011;48016;50.284;18.860;2023-07-30T00:16:25;2.60;;;1.40;;
62056;SDS011;48016;50.284;18.860;2023-07-30T00:18:52;2.60;;;1.40;;
62056;SDS011;48016;50.284;18.860;2023-07-30T00:21:19;3.00;;;1.40;;
62056;SDS011;48016;50.284;18.860;2023-07-30T00:23:45;2.80;;;1.30;;
62056;SDS011;48016;50.284;18.860;2023-07-30T00:26:12;2.50;;;1.30;;
62056;SDS011;48016;50.284;18.860;2023-07-30T00:28:38;4.50;;;1.60;;
62056;SDS011;48016;50.284;18.860;2023-07-30T00:31:05;2.20;;;1.40;;
62056;SDS011;48016;50.284;18.860;2023-07-30T00:33:32;3.20;;;1.70;;
62056;SDS011;48016;50.284;18.860;2023-07-30T00:35:58;2.40;;;1.60;;
62056;SDS011;48016;50.284;18.860;2023-07-30T00:38:25;3.30;;;1.60;;
62056;SDS011;48016;50.284;18.860;2023-07-30T00:40:51;2.50;;;1.60;;
62056;SDS011;48016;50.284;18.860;2023-07-30T00:43:18;4.00;;;1.80;;
62056;SDS011;48016;50.284;18.860;2023-07-30T00:45:44;2.40;;;1.50;;
62056;SDS011;48016;50.284;18.860;2023-07-30T00:48:11;3.10;;;1.50;;
62056;SDS011;48016;50.284;18.860;2023-07-30T00:50:40;2.80;;;1.70;;
62056;SDS011;48016;50.284;18.860;2023-07-30T00:53:07;1.90;;;1.40;;
62056;SDS011;48016;50.284;18.860;2023-07-30T00:55:35;2.90;;;1.60;;
62056;SDS011;48016;50.284;18.860;2023-07-30T00:58:02;2.70;;;1.50;;
62056;SDS011;48016;50.284;18.860;2023-07-30T01:00:30;2.60;;;1.50;;
62056;SDS011;48016;50.284;18.860;2023-07-30T01:02:58;2.80;;;1.50;;
62056;SDS011;48016;50.284;18.860;2023-07-30T01:05:25;2.70;;;1.50;;
62056;SDS011;48016;50.284;18.860;2023-07-30T01:07:52;3.20;;;1.70;;
62056;SDS011;48016;50.284;18.860;2023-07-30T01:10:19;3.00;;;1.70;;
62056;SDS011;48016;50.284;18.860;2023-07-30T01:12:46;2.70;;;1.50;;
62056;SDS011;48016;50.284;18.860;2023-07-30T01:15:13;2.10;;;1.40;;
62056;SDS011;48016;50.284;18.860;2023-07-30T01:17:40;2.60;;;1.20;;
62056;SDS011;48016;50.284;18.860;2023-07-30T01:20:07;2.20;;;1.30;;
62056;SDS011;48016;50.284;18.860;2023-07-30T01:22:34;2.40;;;1.20;;
62056;SDS011;48016;50.284;18.860;2023-07-30T01:25:00;3.10;;;1.10;;
62056;SDS011;48016;50.284;18.860;2023-07-30T01:27:31;2.10;;;1.30;;
62056;SDS011;48016;50.284;18.860;2023-07-30T01:32:32;3.00;;;1.20;;
62056;SDS011;48016;50.284;18.860;2023-07-30T01:37:27;3.20;;;1.40;;
62056;SDS011;48016;50.284;18.860;2023-07-30T01:39:55;2.70;;;1.20;;
62056;SDS011;48016;50.284;18.860;2023-07-30T01:42:27;2.50;;;1.20;;
62056;SDS011;48016;50.284;18.860;2023-07-30T01:44:55;2.40;;;1.20;;
62056;SDS011;48016;50.284;18.860;2023-07-30T01:47:21;2.00;;;1.20;;
62056;SDS011;48016;50.284;18.860;2023-07-30T01:49:48;3.20;;;1.40;;
62056;SDS011;48016;50.284;18.860;2023-07-30T01:52:15;2.90;;;1.50;;
62056;SDS011;48016;50.284;18.860;2023-07-30T01:54:41;2.00;;;1.00;;
62056;SDS011;48016;50.284;18.860;2023-07-30T01:57:08;2.70;;;1.10;;
62056;SDS011;48016;50.284;18.860;2023-07-30T01:59:35;2.30;;;1.40;;
62056;SDS011;48016;50.284;18.860;2023-07-30T02:02:01;1.80;;;1.00;;
62056;SDS011;48016;50.284;18.860;2023-07-30T02:04:28;1.20;;;0.90;;
62056;SDS011;48016;50.284;18.860;2023-07-30T02:06:54;2.30;;;1.00;;
62056;SDS011;48016;50.284;18.860;2023-07-30T02:09:21;2.80;;;1.00;;
62056;SDS011;48016;50.284;18.860;2023-07-30T02:11:47;2.00;;;1.20;;
62056;SDS011;48016;50.284;18.860;2023-07-30T02:14:14;3.50;;;1.20;;
62056;SDS011;48016;50.284;18.860;2023-07-30T02:16:41;2.40;;;1.30;;
62056;SDS011;48016;50.284;18.860;2023-07-30T02:19:07;3.90;;;1.40;;
62056;SDS011;48016;50.284;18.860;2023-07-30T02:21:34;1.90;;;1.00;;
62056;SDS011;48016;50.284;18.860;2023-07-30T02:24:03;3.00;;;1.20;;
62056;SDS011;48016;50.284;18.860;2023-07-30T02:26:30;1.60;;;1.10;;
62056;SDS011;48016;50.284;18.860;2023-07-30T02:28:56;2.80;;;1.20;;
62056;SDS011;48016;50.284;18.860;2023-07-30T02:31:26;2.30;;;0.90;;
62056;SDS011;48016;50.284;18.860;2023-07-30T02:33:52;1.80;;;1.20;;
62056;SDS011;48016;50.284;18.860;2023-07-30T02:36:19;2.30;;;1.10;;
62056;SDS011;48016;50.284;18.860;2023-07-30T02:38:46;2.00;;;1.20;;
62056;SDS011;48016;50.284;18.860;2023-07-30T02:41:12;3.20;;;1.40;;
62056;SDS011;48016;50.284;18.860;2023-07-30T02:43:39;3.40;;;1.50;;
62056;SDS011;48016;50.284;18.860;2023-07-30T02:46:05;1.70;;;1.20;;
62056;SDS011;48016;50.284;18.860;2023-07-30T02:48:33;3.20;;;1.10;;
62056;SDS011;48016;50.284;18.860;2023-07-30T02:50:59;2.40;;;1.40;;
62056;SDS011;48016;50.284;18.860;2023-07-30T02:53:26;2.50;;;1.40;;
62056;SDS011;48016;50.284;18.860;2023-07-30T02:55:52;3.20;;;1.60;;
62056;SDS011;48016;50.284;18.860;2023-07-30T02:58:19;4.70;;;1.60;;
62056;SDS011;48016;50.284;18.860;2023-07-30T03:00:45;2.80;;;1.40;;
62056;SDS011;48016;50.284;18.860;2023-07-30T03:03:12;4.20;;;1.70;;
62056;SDS011;48016;50.284;18.860;2023-07-30T03:05:41;2.70;;;1.30;;
62056;SDS011;48016;50.284;18.860;2023-07-30T03:08:09;4.20;;;1.60;;
62056;SDS011;48016;50.284;18.860;2023-07-30T03:10:38;3.50;;;1.30;;
62056;SDS011;48016;50.284;18.860;2023-07-30T03:13:04;2.40;;;1.40;;
62056;SDS011;48016;50.284;18.860;2023-07-30T03:15:31;3.40;;;1.30;;
62056;SDS011;48016;50.284;18.860;2023-07-30T03:17:58;2.80;;;1.20;;
62056;SDS011;48016;50.284;18.860;2023-07-30T03:20:24;3.30;;;1.50;;
62056;SDS011;48016;50.284;18.860;2023-07-30T03:22:51;2.70;;;1.40;;
62056;SDS011;48016;50.284;18.860;2023-07-30T03:25:17;3.00;;;1.60;;
62056;SDS011;48016;50.284;18.860;2023-07-30T03:27:44;2.30;;;1.00;;
62056;SDS011;48016;50.284;18.860;2023-07-30T03:30:11;3.00;;;1.40;;
62056;SDS011;48016;50.284;18.860;2023-07-30T03:32:37;5.60;;;1.60;;
62056;SDS011;48016;50.284;18.860;2023-07-30T03:35:04;2.30;;;1.40;;
62056;SDS011;48016;50.284;18.860;2023-07-30T03:37:31;2.40;;;1.30;;
62056;SDS011;48016;50.284;18.860;2023-07-30T03:39:57;4.30;;;1.50;;
62056;SDS011;48016;50.284;18.860;2023-07-30T03:42:24;3.20;;;1.60;;
62056;SDS011;48016;50.284;18.860;2023-07-30T03:44:50;3.50;;;1.30;;
62056;SDS011;48016;50.284;18.860;2023-07-30T03:47:17;3.00;;;1.30;;
62056;SDS011;48016;50.284;18.860;2023-07-30T03:49:43;5.80;;;1.80;;
62056;SDS011;48016;50.284;18.860;2023-07-30T03:52:10;4.90;;;1.60;;
62056;SDS011;48016;50.284;18.860;2023-07-30T03:54:36;3.30;;;2.10;;
62056;SDS011;48016;50.284;18.860;2023-07-30T03:57:03;4.20;;;1.70;;
62056;SDS011;48016;50.284;18.860;2023-07-30T03:59:30;4.00;;;1.60;;
62056;SDS011;48016;50.284;18.860;2023-07-30T04:01:56;4.40;;;1.80;;
62056;SDS011;48016;50.284;18.860;2023-07-30T04:04:23;5.00;;;1.70;;
62056;SDS011;48016;50.284;18.860;2023-07-30T04:06:50;4.40;;;2.10;;
62056;SDS011;48016;50.284;18.860;2023-07-30T04:09:17;3.90;;;1.80;;
62056;SDS011;48016;50.284;18.860;2023-07-30T04:11:43;5.00;;;1.80;;
62056;SDS011;48016;50.284;18.860;2023-07-30T04:14:10;3.60;;;1.70;;
62056;SDS011;48016;50.284;18.860;2023-07-30T04:16:37;3.20;;;1.50;;
62056;SDS011;48016;50.284;18.860;2023-07-30T04:19:03;6.20;;;1.90;;
62056;SDS011;48016;50.284;18.860;2023-07-30T04:21:30;9.30;;;1.70;;
62056;SDS011;48016;50.284;18.860;2023-07-30T04:23:56;2.90;;;1.40;;
62056;SDS011;48016;50.284;18.860;2023-07-30T04:26:23;4.70;;;1.80;;
62056;SDS011;48016;50.284;18.860;2023-07-30T04:28:49;3.30;;;1.30;;
62056;SDS011;48016;50.284;18.860;2023-07-30T04:31:16;3.30;;;1.30;;
62056;SDS011;48016;50.284;18.860;2023-07-30T04:33:42;4.40;;;1.60;;
62056;SDS011;48016;50.284;18.860;2023-07-30T04:36:09;2.40;;;1.30;;
62056;SDS011;48016;50.284;18.860;2023-07-30T04:38:35;4.30;;;1.30;;
62056;SDS011;48016;50.284;18.860;2023-07-30T04:41:02;3.80;;;1.40;;
62056;SDS011;48016;50.284;18.860;2023-07-30T04:43:29;2.40;;;1.20;;
62056;SDS011;48016;50.284;18.860;2023-07-30T04:45:55;2.10;;;1.60;;
62056;SDS011;48016;50.284;18.860;2023-07-30T04:48:22;3.60;;;1.30;;
62056;SDS011;48016;50.284;18.860;2023-07-30T04:50:48;2.00;;;1.20;;
62056;SDS011;48016;50.284;18.860;2023-07-30T04:53:15;6.20;;;1.40;;
62056;SDS011;48016;50.284;18.860;2023-07-30T04:55:43;3.10;;;1.30;;
62056;SDS011;48016;50.284;18.860;2023-07-30T04:58:09;3.50;;;1.50;;
62056;SDS011;48016;50.284;18.860;2023-07-30T05:00:36;3.10;;;1.40;;
62056;SDS011;48016;50.284;18.860;2023-07-30T05:03:03;2.30;;;1.40;;
62056;SDS011;48016;50.284;18.860;2023-07-30T05:05:29;2.90;;;1.30;;
62056;SDS011;48016;50.284;18.860;2023-07-30T05:07:56;2.80;;;1.50;;
62056;SDS011;48016;50.284;18.860;2023-07-30T05:10:22;3.90;;;1.40;;
62056;SDS011;48016;50.284;18.860;2023-07-30T05:12:49;1.70;;;1.20;;
62056;SDS011;48016;50.284;18.860;2023-07-30T05:15:15;3.10;;;1.40;;
62056;SDS011;48016;50.284;18.860;2023-07-30T05:17:42;4.80;;;1.20;;
62056;SDS011;48016;50.284;18.860;2023-07-30T05:20:09;2.70;;;1.30;;
62056;SDS011;48016;50.284;18.860;2023-07-30T05:22:36;2.10;;;1.20;;
62056;SDS011;48016;50.284;18.860;2023-07-30T05:25:02;2.30;;;1.40;;
62056;SDS011;48016;50.284;18.860;2023-07-30T05:27:29;2.10;;;1.10;;
62056;SDS011;48016;50.284;18.860;2023-07-30T05:29:57;3.70;;;1.50;;
62056;SDS011;48016;50.284;18.860;2023-07-30T05:32:25;2.30;;;1.40;;
62056;SDS011;48016;50.284;18.860;2023-07-30T05:34:51;2.00;;;1.20;;
62056;SDS011;48016;50.284;18.860;2023-07-30T05:37:18;2.20;;;1.50;;
62056;SDS011;48016;50.284;18.860;2023-07-30T05:39:45;3.90;;;2.30;;
62056;SDS011;48016;50.284;18.860;2023-07-30T05:42:11;3.80;;;1.60;;
62056;SDS011;48016;50.284;18.860;2023-07-30T05:44:38;4.00;;;1.80;;
62056;SDS011;48016;50.284;18.860;2023-07-30T05:47:04;2.30;;;1.70;;
62056;SDS011;48016;50.284;18.860;2023-07-30T05:49:31;5.00;;;1.60;;
62056;SDS011;48016;50.284;18.860;2023-07-30T05:51:58;2.60;;;1.80;;
62056;SDS011;48016;50.284;18.860;2023-07-30T05:54:24;2.90;;;1.60;;
62056;SDS011;48016;50.284;18.860;2023-07-30T05:56:51;3.90;;;1.90;;
62056;SDS011;48016;50.284;18.860;2023-07-30T05:59:17;4.40;;;2.00;;
62056;SDS011;48016;50.284;18.860;2023-07-30T06:01:44;2.90;;;1.80;;
62056;SDS011;48016;50.284;18.860;2023-07-30T06:04:10;2.40;;;1.50;;
62056;SDS011;48016;50.284;18.860;2023-07-30T06:06:37;3.60;;;1.90;;
62056;SDS011;48016;50.284;18.860;2023-07-30T06:09:03;3.10;;;1.60;;
62056;SDS011;48016;50.284;18.860;2023-07-30T06:11:30;5.40;;;2.10;;
62056;SDS011;48016;50.284;18.860;2023-07-30T06:13:56;2.40;;;1.70;;
62056;SDS011;48016;50.284;18.860;2023-07-30T06:16:23;3.80;;;2.20;;
62056;SDS011;48016;50.284;18.860;2023-07-30T06:18:50;3.50;;;1.50;;
62056;SDS011;48016;50.284;18.860;2023-07-30T06:21:16;2.50;;;1.60;;
62056;SDS011;48016;50.284;18.860;2023-07-30T06:23:43;2.80;;;1.50;;
62056;SDS011;48016;50.284;18.860;2023-07-30T06:26:09;2.50;;;1.90;;
62056;SDS011;48016;50.284;18.860;2023-07-30T06:28:36;2.20;;;1.30;;
62056;SDS011;48016;50.284;18.860;2023-07-30T06:31:02;3.70;;;1.60;;
62056;SDS011;48016;50.284;18.860;2023-07-30T06:33:29;2.30;;;1.40;;
62056;SDS011;48016;50.284;18.860;2023-07-30T06:35:55;2.10;;;1.50;;
62056;SDS011;48016;50.284;18.860;2023-07-30T06:38:22;3.20;;;1.70;;
62056;SDS011;48016;50.284;18.860;2023-07-30T06:40:48;3.10;;;1.50;;
62056;SDS011;48016;50.284;18.860;2023-07-30T06:43:15;1.90;;;1.40;;
62056;SDS011;48016;50.284;18.860;2023-07-30T06:45:42;3.80;;;1.40;;
62056;SDS011;48016;50.284;18.860;2023-07-30T06:48:09;2.20;;;1.60;;
62056;SDS011;48016;50.284;18.860;2023-07-30T06:50:35;2.10;;;1.30;;
62056;SDS011;48016;50.284;18.860;2023-07-30T06:53:02;2.40;;;1.30;;
62056;SDS011;48016;50.284;18.860;2023-07-30T06:55:29;2.70;;;1.70;;
62056;SDS011;48016;50.284;18.860;2023-07-30T06:57:55;3.80;;;1.20;;
62056;SDS011;48016;50.284;18.860;2023-07-30T07:00:22;4.40;;;1.90;;
62056;SDS011;48016;50.284;18.860;2023-07-30T07:02:49;2.70;;;1.70;;
62056;SDS011;48016;50.284;18.860;2023-07-30T07:05:15;3.10;;;1.60;;
62056;SDS011;48016;50.284;18.860;2023-07-30T07:07:42;2.60;;;1.50;;
62056;SDS011;48016;50.284;18.860;2023-07-30T07:12:37;2.70;;;1.40;;
62056;SDS011;48016;50.284;18.860;2023-07-30T07:15:05;2.80;;;1.50;;
62056;SDS011;48016;50.284;18.860;2023-07-30T07:17:32;2.70;;;1.60;;
62056;SDS011;48016;50.284;18.860;2023-07-30T07:19:58;3.30;;;1.40;;
62056;SDS011;48016;50.284;18.860;2023-07-30T07:22:25;3.60;;;1.70;;
62056;SDS011;48016;50.284;18.860;2023-07-30T07:24:52;3.70;;;1.50;;
62056;SDS011;48016;50.284;18.860;2023-07-30T07:27:19;3.40;;;1.60;;
62056;SDS011;48016;50.284;18.860;2023-07-30T07:29:45;2.50;;;1.50;;
62056;SDS011;48016;50.284;18.860;2023-07-30T07:34:38;2.40;;;1.50;;
62056;SDS011;48016;50.284;18.860;2023-07-30T07:37:05;3.00;;;2.10;;
62056;SDS011;48016;50.284;18.860;2023-07-30T07:41:59;2.40;;;1.50;;
62056;SDS011;48016;50.284;18.860;2023-07-30T07:44:25;4.10;;;1.90;;
62056;SDS011;48016;50.284;18.860;2023-07-30T07:46:52;2.70;;;1.40;;
62056;SDS011;48016;50.284;18.860;2023-07-30T07:51:45;2.60;;;1.60;;
62056;SDS011;48016;50.284;18.860;2023-07-30T07:54:12;2.50;;;1.70;;
62056;SDS011;48016;50.284;18.860;2023-07-30T07:56:38;2.90;;;1.70;;
62056;SDS011;48016;50.284;18.860;2023-07-30T07:59:05;3.40;;;1.90;;
62056;SDS011;48016;50.284;18.860;2023-07-30T08:01:31;2.60;;;1.60;;
62056;SDS011;48016;50.284;18.860;2023-07-30T08:03:58;3.50;;;1.60;;
62056;SDS011;48016;50.284;18.860;2023-07-30T08:06:24;3.80;;;1.80;;
62056;SDS011;48016;50.284;18.860;2023-07-30T08:08:51;3.90;;;1.70;;
62056;SDS011;48016;50.284;18.860;2023-07-30T08:16:12;2.90;;;1.60;;
62056;SDS011;48016;50.284;18.860;2023-07-30T08:18:38;2.40;;;1.70;;
62056;SDS011;48016;50.284;18.860;2023-07-30T08:21:05;2.40;;;1.60;;
62056;SDS011;48016;50.284;18.860;2023-07-30T08:23:31;2.00;;;1.50;;
62056;SDS011;48016;50.284;18.860;2023-07-30T08:25:58;3.00;;;1.80;;
62056;SDS011;48016;50.284;18.860;2023-07-30T08:28:24;2.60;;;1.50;;
62056;SDS011;48016;50.284;18.860;2023-07-30T08:30:51;3.80;;;2.00;;
62056;SDS011;48016;50.284;18.860;2023-07-30T08:33:18;4.50;;;2.00;;
62056;SDS011;48016;50.284;18.860;2023-07-30T08:35:44;3.50;;;1.80;;
62056;SDS011;48016;50.284;18.860;2023-07-30T08:38:11;4.00;;;1.80;;
62056;SDS011;48016;50.284;18.860;2023-07-30T08:40:37;2.20;;;1.60;;
62056;SDS011;48016;50.284;18.860;2023-07-30T08:43:04;2.50;;;1.60;;
62056;SDS011;48016;50.284;18.860;2023-07-30T08:45:30;4.70;;;2.20;;
62056;SDS011;48016;50.284;18.860;2023-07-30T08:47:57;3.30;;;1.80;;
62056;SDS011;48016;50.284;18.860;2023-07-30T08:50:24;2.50;;;1.80;;
62056;SDS011;48016;50.284;18.860;2023-07-30T08:52:52;2.90;;;1.90;;
62056;SDS011;48016;50.284;18.860;2023-07-30T08:55:21;3.20;;;1.90;;
62056;SDS011;48016;50.284;18.860;2023-07-30T08:57:49;3.10;;;1.70;;
62056;SDS011;48016;50.284;18.860;2023-07-30T09:00:17;3.50;;;1.60;;
62056;SDS011;48016;50.284;18.860;2023-07-30T09:02:52;2.60;;;1.90;;
62056;SDS011;48016;50.284;18.860;2023-07-30T09:05:21;2.60;;;1.60;;
62056;SDS011;48016;50.284;18.860;2023-07-30T09:07:48;2.70;;;1.90;;
62056;SDS011;48016;50.284;18.860;2023-07-30T09:12:42;2.60;;;1.80;;
62056;SDS011;48016;50.284;18.860;2023-07-30T09:15:08;2.90;;;1.80;;
62056;SDS011;48016;50.284;18.860;2023-07-30T09:17:35;2.40;;;1.80;;
62056;SDS011;48016;50.284;18.860;2023-07-30T09:20:03;2.50;;;1.60;;
62056;SDS011;48016;50.284;18.860;2023-07-30T09:22:33;2.70;;;1.80;;
62056;SDS011;48016;50.284;18.860;2023-07-30T09:25:06;3.20;;;1.70;;
62056;SDS011;48016;50.284;18.860;2023-07-30T09:27:33;3.60;;;1.80;;
62056;SDS011;48016;50.284;18.860;2023-07-30T09:32:28;2.80;;;1.80;;
62056;SDS011;48016;50.284;18.860;2023-07-30T09:35:09;2.70;;;2.00;;
62056;SDS011;48016;50.284;18.860;2023-07-30T09:37:40;3.90;;;1.90;;
62056;SDS011;48016;50.284;18.860;2023-07-30T09:40:08;3.20;;;1.80;;
62056;SDS011;48016;50.284;18.860;2023-07-30T09:42:36;2.50;;;1.90;;
62056;SDS011;48016;50.284;18.860;2023-07-30T09:45:06;2.30;;;1.60;;
62056;SDS011;48016;50.284;18.860;2023-07-30T09:47:39;2.00;;;1.70;;
62056;SDS011;48016;50.284;18.860;2023-07-30T09:50:05;2.20;;;1.80;;
62056;SDS011;48016;50.284;18.860;2023-07-30T09:52:32;2.90;;;1.70;;
62056;SDS011;48016;50.284;18.860;2023-07-30T09:55:00;2.80;;;1.60;;
62056;SDS011;48016;50.284;18.860;2023-07-30T09:57:26;3.10;;;1.90;;
62056;SDS011;48016;50.284;18.860;2023-07-30T09:59:53;2.00;;;1.80;;
62056;SDS011;48016;50.284;18.860;2023-07-30T10:02:19;2.50;;;1.80;;
62056;SDS011;48016;50.284;18.860;2023-07-30T10:04:48;2.00;;;1.80;;
62056;SDS011;48016;50.284;18.860;2023-07-30T10:07:18;2.40;;;2.00;;
62056;SDS011;48016;50.284;18.860;2023-07-30T10:09:48;3.60;;;1.90;;
62056;SDS011;48016;50.284;18.860;2023-07-30T10:12:24;3.20;;;1.90;;
62056;SDS011;48016;50.284;18.860;2023-07-30T10:14:56;2.10;;;1.70;;
62056;SDS011;48016;50.284;18.860;2023-07-30T10:17:23;2.10;;;1.60;;
62056;SDS011;48016;50.284;18.860;2023-07-30T10:19:50;1.90;;;1.70;;
62056;SDS011;48016;50.284;18.860;2023-07-30T10:27:27;3.40;;;1.80;;
62056;SDS011;48016;50.284;18.860;2023-07-30T10:30:08;2.90;;;2.10;;
62056;SDS011;48016;50.284;18.860;2023-07-30T10:38:19;2.00;;;1.70;;
62056;SDS011;48016;50.284;18.860;2023-07-30T10:43:46;2.60;;;1.70;;
62056;SDS011;48016;50.284;18.860;2023-07-30T10:46:14;2.00;;;1.60;;
62056;SDS011;48016;50.284;18.860;2023-07-30T10:48:43;2.70;;;1.80;;
62056;SDS011;48016;50.284;18.860;2023-07-30T10:51:14;2.10;;;1.60;;
62056;SDS011;48016;50.284;18.860;2023-07-30T10:53:43;2.30;;;1.60;;
62056;SDS011;48016;50.284;18.860;2023-07-30T10:56:12;2.10;;;1.60;;
62056;SDS011;48016;50.284;18.860;2023-07-30T10:58:40;3.00;;;1.80;;
62056;SDS011;48016;50.284;18.860;2023-07-30T11:01:07;2.00;;;1.70;;
62056;SDS011;48016;50.284;18.860;2023-07-30T11:03:35;3.90;;;1.80;;
62056;SDS011;48016;50.284;18.860;2023-07-30T11:06:02;1.90;;;1.60;;
62056;SDS011;48016;50.284;18.860;2023-07-30T11:11:03;3.20;;;2.00;;
62056;SDS011;48016;50.284;18.860;2023-07-30T11:13:37;3.40;;;1.80;;
62056;SDS011;48016;50.284;18.860;2023-07-30T11:16:05;3.20;;;1.80;;
62056;SDS011;48016;50.284;18.860;2023-07-30T11:18:33;3.10;;;1.80;;
62056;SDS011;48016;50.284;18.860;2023-07-30T11:23:31;3.10;;;1.90;;
62056;SDS011;48016;50.284;18.860;2023-07-30T11:26:00;2.80;;;1.70;;
62056;SDS011;48016;50.284;18.860;2023-07-30T11:28:29;2.90;;;2.10;;
62056;SDS011;48016;50.284;18.860;2023-07-30T11:30:57;2.40;;;1.90;;
62056;SDS011;48016;50.284;18.860;2023-07-30T11:33:28;2.30;;;1.90;;
62056;SDS011;48016;50.284;18.860;2023-07-30T11:35:55;2.20;;;1.90;;
62056;SDS011;48016;50.284;18.860;2023-07-30T11:38:23;3.30;;;2.00;;
62056;SDS011;48016;50.284;18.860;2023-07-30T11:40:52;2.40;;;1.90;;
62056;SDS011;48016;50.284;18.860;2023-07-30T11:43:20;2.60;;;1.90;;
62056;SDS011;48016;50.284;18.860;2023-07-30T11:45:47;2.50;;;2.00;;
62056;SDS011;48016;50.284;18.860;2023-07-30T11:48:14;2.90;;;2.30;;
62056;SDS011;48016;50.284;18.860;2023-07-30T11:53:10;2.50;;;1.90;;
62056;SDS011;48016;50.284;18.860;2023-07-30T11:55:37;4.70;;;1.90;;
62056;SDS011;48016;50.284;18.860;2023-07-30T11:58:08;2.70;;;1.90;;
62056;SDS011;48016;50.284;18.860;2023-07-30T12:00:36;3.00;;;1.90;;
62056;SDS011;48016;50.284;18.860;2023-07-30T12:03:05;2.40;;;1.80;;
62056;SDS011;48016;50.284;18.860;2023-07-30T12:05:34;3.20;;;2.10;;
62056;SDS011;48016;50.284;18.860;2023-07-30T12:08:05;2.50;;;1.90;;
62056;SDS011;48016;50.284;18.860;2023-07-30T12:10:45;2.70;;;1.70;;
62056;SDS011;48016;50.284;18.860;2023-07-30T12:13:15;2.70;;;1.90;;
62056;SDS011;48016;50.284;18.860;2023-07-30T12:15:52;2.80;;;2.20;;
62056;SDS011;48016;50.284;18.860;2023-07-30T12:20:47;2.50;;;1.80;;
62056;SDS011;48016;50.284;18.860;2023-07-30T12:28:07;5.40;;;2.30;;
62056;SDS011;48016;50.284;18.860;2023-07-30T12:30:33;3.70;;;2.10;;
62056;SDS011;48016;50.284;18.860;2023-07-30T12:33:01;4.80;;;2.30;;
62056;SDS011;48016;50.284;18.860;2023-07-30T12:35:31;3.50;;;2.20;;
62056;SDS011;48016;50.284;18.860;2023-07-30T12:37:59;2.30;;;1.80;;
62056;SDS011;48016;50.284;18.860;2023-07-30T12:40:26;3.70;;;1.80;;
62056;SDS011;48016;50.284;18.860;2023-07-30T12:42:55;2.50;;;2.00;;
62056;SDS011;48016;50.284;18.860;2023-07-30T12:47:49;3.90;;;1.90;;
62056;SDS011;48016;50.284;18.860;2023-07-30T12:50:15;5.00;;;1.80;;
62056;SDS011;48016;50.284;18.860;2023-07-30T12:52:42;2.10;;;1.70;;
62056;SDS011;48016;50.284;18.860;2023-07-30T12:55:10;2.70;;;2.00;;
62056;SDS011;48016;50.284;18.860;2023-07-30T12:57:36;4.00;;;2.50;;
62056;SDS011;48016;50.284;18.860;2023-07-30T13:00:03;2.70;;;2.20;;
62056;SDS011;48016;50.284;18.860;2023-07-30T13:02:31;3.00;;;2.10;;
62056;SDS011;48016;50.284;18.860;2023-07-30T13:05:00;4.80;;;2.20;;
62056;SDS011;48016;50.284;18.860;2023-07-30T13:07:27;3.30;;;1.90;;
62056;SDS011;48016;50.284;18.860;2023-07-30T13:10:03;3.30;;;2.30;;
62056;SDS011;48016;50.284;18.860;2023-07-30T13:12:33;2.80;;;2.00;;
62056;SDS011;48016;50.284;18.860;2023-07-30T13:15:01;3.10;;;2.00;;
62056;SDS011;48016;50.284;18.860;2023-07-30T13:17:29;2.60;;;2.00;;
62056;SDS011;48016;50.284;18.860;2023-07-30T13:19:55;3.10;;;1.90;;
62056;SDS011;48016;50.284;18.860;2023-07-30T13:22:22;2.90;;;2.20;;
62056;SDS011;48016;50.284;18.860;2023-07-30T13:24:48;4.10;;;2.00;;
62056;SDS011;48016;50.284;18.860;2023-07-30T13:27:16;3.00;;;1.90;;
62056;SDS011;48016;50.284;18.860;2023-07-30T13:29:43;2.60;;;1.80;;
62056;SDS011;48016;50.284;18.860;2023-07-30T13:32:10;2.00;;;1.60;;
62056;SDS011;48016;50.284;18.860;2023-07-30T13:34:36;3.10;;;2.10;;
62056;SDS011;48016;50.284;18.860;2023-07-30T13:39:30;3.00;;;2.10;;
62056;SDS011;48016;50.284;18.860;2023-07-30T13:41:56;3.30;;;2.20;;
62056;SDS011;48016;50.284;18.860;2023-07-30T13:44:23;3.60;;;1.80;;
62056;SDS011;48016;50.284;18.860;2023-07-30T13:46:50;2.40;;;1.80;;
62056;SDS011;48016;50.284;18.860;2023-07-30T13:56:36;3.00;;;1.70;;
62056;SDS011;48016;50.284;18.860;2023-07-30T13:59:04;3.20;;;2.20;;
62056;SDS011;48016;50.284;18.860;2023-07-30T14:03:58;5.00;;;2.20;;
62056;SDS011;48016;50.284;18.860;2023-07-30T14:06:24;3.60;;;2.10;;
62056;SDS011;48016;50.284;18.860;2023-07-30T14:08:51;3.00;;;2.00;;
62056;SDS011;48016;50.284;18.860;2023-07-30T14:11:18;2.50;;;2.10;;
62056;SDS011;48016;50.284;18.860;2023-07-30T14:13:44;3.70;;;2.30;;
62056;SDS011;48016;50.284;18.860;2023-07-30T14:16:11;3.30;;;2.30;;
62056;SDS011;48016;50.284;18.860;2023-07-30T14:18:37;3.90;;;2.30;;
62056;SDS011;48016;50.284;18.860;2023-07-30T14:21:05;3.80;;;2.30;;
62056;SDS011;48016;50.284;18.860;2023-07-30T14:23:32;3.30;;;2.50;;
62056;SDS011;48016;50.284;18.860;2023-07-30T14:25:58;4.30;;;2.50;;
62056;SDS011;48016;50.284;18.860;2023-07-30T14:28:25;3.90;;;2.50;;
62056;SDS011;48016;50.284;18.860;2023-07-30T14:38:11;2.60;;;2.00;;
62056;SDS011;48016;50.284;18.860;2023-07-30T14:40:39;4.10;;;2.30;;
62056;SDS011;48016;50.284;18.860;2023-07-30T14:43:05;3.80;;;2.20;;
62056;SDS011;48016;50.284;18.860;2023-07-30T14:45:32;2.90;;;2.20;;
62056;SDS011;48016;50.284;18.860;2023-07-30T14:47:58;4.00;;;2.40;;
62056;SDS011;48016;50.284;18.860;2023-07-30T14:50:25;3.30;;;2.20;;
62056;SDS011;48016;50.284;18.860;2023-07-30T14:52:52;3.20;;;2.10;;
62056;SDS011;48016;50.284;18.860;2023-07-30T14:55:18;3.50;;;2.40;;
62056;SDS011;48016;50.284;18.860;2023-07-30T14:57:45;3.10;;;2.30;;
62056;SDS011;48016;50.284;18.860;2023-07-30T15:00:11;3.30;;;2.40;;
62056;SDS011;48016;50.284;18.860;2023-07-30T15:02:40;2.90;;;1.90;;
62056;SDS011;48016;50.284;18.860;2023-07-30T15:05:07;3.00;;;2.00;;
62056;SDS011;48016;50.284;18.860;2023-07-30T15:07:34;2.50;;;2.00;;
62056;SDS011;48016;50.284;18.860;2023-07-30T15:10:00;2.60;;;2.00;;
62056;SDS011;48016;50.284;18.860;2023-07-30T15:12:27;2.90;;;2.00;;
62056;SDS011;48016;50.284;18.860;2023-07-30T15:14:53;3.00;;;2.10;;
62056;SDS011;48016;50.284;18.860;2023-07-30T15:17:20;5.40;;;2.40;;
62056;SDS011;48016;50.284;18.860;2023-07-30T15:19:46;3.00;;;2.10;;
62056;SDS011;48016;50.284;18.860;2023-07-30T15:22:14;3.80;;;2.60;;
62056;SDS011;48016;50.284;18.860;2023-07-30T15:24:40;3.30;;;2.10;;
62056;SDS011;48016;50.284;18.860;2023-07-30T15:27:07;4.10;;;2.20;;
62056;SDS011;48016;50.284;18.860;2023-07-30T15:29:34;3.40;;;2.30;;
62056;SDS011;48016;50.284;18.860;2023-07-30T15:32:00;3.70;;;2.30;;
62056;SDS011;48016;50.284;18.860;2023-07-30T15:34:28;5.40;;;2.20;;
62056;SDS011;48016;50.284;18.860;2023-07-30T15:36:54;3.10;;;2.40;;
62056;SDS011;48016;50.284;18.860;2023-07-30T15:39:22;3.50;;;2.10;;
62056;SDS011;48016;50.284;18.860;2023-07-30T15:41:49;4.10;;;2.60;;
62056;SDS011;48016;50.284;18.860;2023-07-30T15:44:15;5.20;;;2.40;;
62056;SDS011;48016;50.284;18.860;2023-07-30T15:46:45;5.10;;;2.40;;
62056;SDS011;48016;50.284;18.860;2023-07-30T15:49:12;3.30;;;2.40;;